PWSweather.com
Personal Weather Stations
Station Observations
LOBIOS
Galicia, LobiosES

GaliciaLobiosES

Lat: 41.895, Lon: -8.091667

Elevation: 1597

Station Type: Automática/Davis Vantage Pro2 Plus

Latest ConditionsUpdated 11:40:01 AM GMT+01:01 Thursday, Aug 22, 2019
Currently Today's Max Today's Min Today's Average
Temperature 84.6°F29.2°C 84.6°F29.2°C 56.7°F13.7°C 63.8°F17.7°C
Dew Point 59.0°F15.0°C 61.5°F16.4°C 53.1°F11.7°C 55.6°F13.1°C
Winds 6.9 mph NE11.1 kmh NE 10.4 mph -16.7 kmh - - 2.4 mph 3.9 kmh
Wind Gusts 10.4 mph16.7 kmh 12.7 mph20.4 kmh - -
Humidity 42% 88% 42% 77%
Pressure 30.08 in1018.6 mb 30.11 in1019.6 mb 30.07 in1018.3 mb -
Hour Temp Dew Point Humidity Winds Wind Gusts Pressure Precip Precip Rate Daily Precip Total
11:40 AM 84.6°F29.2°C 59.0°F15.0°C 42% 6.9 mph NE11.1 kmh NE 10.4 mph16.7 kmh 30.08 in1018.6 mb - 0.00 in0.0 mm 0.00 in0.0 mm
11:30 AM 84.3°F29.1°C 60.0°F15.6°C 44% 5.8 mph NE9.3 kmh NE 9.2 mph14.8 kmh 30.08 in1018.6 mb - 0.00 in0.0 mm 0.00 in0.0 mm
11:20 AM 83.0°F28.3°C 58.8°F14.9°C 44% 8.1 mph NE13.0 kmh NE 9.2 mph14.8 kmh 30.08 in1018.6 mb - 0.00 in0.0 mm 0.00 in0.0 mm
11:10 AM 82.3°F27.9°C 58.9°F14.9°C 45% 9.2 mph NE14.8 kmh NE 9.2 mph14.8 kmh 30.08 in1018.6 mb - 0.00 in0.0 mm 0.00 in0.0 mm
11:00 AM 81.7°F27.6°C 59.5°F15.3°C 47% 10.4 mph NE16.7 kmh NE 12.7 mph20.4 kmh 30.08 in1018.6 mb - 0.00 in0.0 mm 0.00 in0.0 mm
10:50 AM 80.5°F26.9°C 61.2°F16.2°C 52% 8.1 mph NE13.0 kmh NE 11.5 mph18.5 kmh 30.08 in1018.6 mb - 0.00 in0.0 mm 0.00 in0.0 mm
10:40 AM 79.4°F26.3°C 61.3°F16.3°C 54% 6.9 mph NE11.1 kmh NE 9.2 mph14.8 kmh 30.09 in1019.0 mb - 0.00 in0.0 mm 0.00 in0.0 mm
10:30 AM 78.5°F25.8°C 61.5°F16.4°C 56% 1.1 mph ENE1.8 kmh ENE 6.9 mph11.1 kmh 30.09 in1019.0 mb - 0.00 in0.0 mm 0.00 in0.0 mm
10:20 AM 77.0°F25.0°C 61.1°F16.2°C 58% 6.9 mph NNE11.1 kmh NNE 10.4 mph16.7 kmh 30.09 in1019.0 mb - 0.00 in0.0 mm 0.00 in0.0 mm
10:10 AM 75.8°F24.3°C 60.4°F15.8°C 59% 3.5 mph NE5.6 kmh NE 3.5 mph5.6 kmh 30.09 in1019.0 mb - 0.00 in0.0 mm 0.00 in0.0 mm
10:00 AM 74.9°F23.8°C 60.1°F15.6°C 60% 4.6 mph ENE7.4 kmh ENE 5.8 mph9.3 kmh 30.09 in1019.0 mb - 0.00 in0.0 mm 0.00 in0.0 mm
09:50 AM 73.0°F22.8°C 59.2°F15.1°C 62% 6.9 mph N11.1 kmh N 6.9 mph11.1 kmh 30.09 in1019.0 mb - 0.00 in0.0 mm 0.00 in0.0 mm
09:40 AM 71.3°F21.8°C 59.4°F15.2°C 66% 4.6 mph NE7.4 kmh NE 8.1 mph13.0 kmh 30.09 in1019.0 mb - 0.00 in0.0 mm 0.00 in0.0 mm
09:30 AM 70.5°F21.4°C 59.0°F15.0°C 67% 1.1 mph ENE1.8 kmh ENE 1.1 mph1.8 kmh 30.09 in1019.0 mb - 0.00 in0.0 mm 0.00 in0.0 mm
09:20 AM 69.8°F21.0°C 58.3°F14.6°C 67% 1.1 mph NE1.8 kmh NE 2.3 mph3.7 kmh 30.09 in1019.0 mb - 0.00 in0.0 mm 0.00 in0.0 mm
09:10 AM 68.7°F20.4°C 58.5°F14.7°C 70% 2.3 mph NE3.7 kmh NE 4.6 mph7.4 kmh 30.09 in1019.0 mb - 0.00 in0.0 mm 0.00 in0.0 mm
09:00 AM 67.7°F19.8°C 58.4°F14.7°C 72% Calm Calm 3.5 mph5.6 kmh 30.09 in1019.0 mb - 0.00 in0.0 mm 0.00 in0.0 mm
08:50 AM 66.6°F19.2°C 57.7°F14.3°C 73% 2.3 mph NE3.7 kmh NE 3.5 mph5.6 kmh 30.09 in1019.0 mb - 0.00 in0.0 mm 0.00 in0.0 mm
08:40 AM 65.5°F18.6°C 57.3°F14.1°C 75% 2.3 mph NE3.7 kmh NE 3.5 mph5.6 kmh 30.09 in1019.0 mb - 0.00 in0.0 mm 0.00 in0.0 mm
08:30 AM 64.0°F17.8°C 56.7°F13.7°C 77% 4.6 mph NE7.4 kmh NE 4.6 mph7.4 kmh 30.10 in1019.3 mb - 0.00 in0.0 mm 0.00 in0.0 mm
08:20 AM 63.0°F17.2°C 56.4°F13.6°C 79% 2.3 mph E3.7 kmh E 5.8 mph9.3 kmh 30.10 in1019.3 mb - 0.00 in0.0 mm 0.00 in0.0 mm
08:10 AM 62.0°F16.7°C 56.1°F13.4°C 81% 2.3 mph NE3.7 kmh NE 4.6 mph7.4 kmh 30.10 in1019.3 mb - 0.00 in0.0 mm 0.00 in0.0 mm
08:00 AM 60.9°F16.1°C 55.7°F13.2°C 83% 4.6 mph NE7.4 kmh NE 5.8 mph9.3 kmh 30.09 in1019.0 mb - 0.00 in0.0 mm 0.00 in0.0 mm
07:50 AM 60.1°F15.6°C 55.5°F13.1°C 85% 2.3 mph NE3.7 kmh NE 3.5 mph5.6 kmh 30.09 in1019.0 mb - 0.00 in0.0 mm 0.00 in0.0 mm
07:40 AM 59.3°F15.2°C 55.4°F13.0°C 87% 2.3 mph NE3.7 kmh NE 4.6 mph7.4 kmh 30.09 in1019.0 mb - 0.00 in0.0 mm 0.00 in0.0 mm
07:30 AM 58.6°F14.8°C 55.0°F12.8°C 88% 3.5 mph NE5.6 kmh NE 4.6 mph7.4 kmh 30.09 in1019.0 mb - 0.00 in0.0 mm 0.00 in0.0 mm
07:20 AM 57.8°F14.3°C 54.3°F12.4°C 88% 3.5 mph NE5.6 kmh NE 4.6 mph7.4 kmh 30.09 in1019.0 mb - 0.00 in0.0 mm 0.00 in0.0 mm
07:10 AM 57.2°F14.0°C 53.7°F12.1°C 88% 3.5 mph NE5.6 kmh NE 4.6 mph7.4 kmh 30.09 in1019.0 mb - 0.00 in0.0 mm 0.00 in0.0 mm
07:00 AM 57.0°F13.9°C 53.5°F11.9°C 88% 4.6 mph NE7.4 kmh NE 4.6 mph7.4 kmh 30.08 in1018.6 mb - 0.00 in0.0 mm 0.00 in0.0 mm
06:50 AM 56.9°F13.8°C 53.4°F11.9°C 88% 2.3 mph NE3.7 kmh NE 4.6 mph7.4 kmh 30.08 in1018.6 mb - 0.00 in0.0 mm 0.00 in0.0 mm
06:40 AM 56.8°F13.8°C 53.3°F11.8°C 88% 1.1 mph NE1.8 kmh NE 2.3 mph3.7 kmh 30.08 in1018.6 mb - 0.00 in0.0 mm 0.00 in0.0 mm
06:30 AM 56.8°F13.8°C 53.3°F11.8°C 88% 1.1 mph NE1.8 kmh NE 1.1 mph1.8 kmh 30.08 in1018.6 mb - 0.00 in0.0 mm 0.00 in0.0 mm
06:10 AM 56.8°F13.8°C 53.3°F11.8°C 88% 1.1 mph NE1.8 kmh NE 2.3 mph3.7 kmh 30.08 in1018.6 mb - 0.00 in0.0 mm 0.00 in0.0 mm
06:00 AM 56.8°F13.8°C 53.3°F11.8°C 88% 3.5 mph NE5.6 kmh NE 4.6 mph7.4 kmh 30.07 in1018.3 mb - 0.00 in0.0 mm 0.00 in0.0 mm
05:50 AM 56.7°F13.7°C 53.2°F11.8°C 88% 1.1 mph NE1.8 kmh NE 2.3 mph3.7 kmh 30.07 in1018.3 mb - 0.00 in0.0 mm 0.00 in0.0 mm
05:40 AM 56.7°F13.7°C 53.2°F11.8°C 88% Calm Calm 1.1 mph1.8 kmh 30.08 in1018.6 mb - 0.00 in0.0 mm 0.00 in0.0 mm
05:30 AM 56.8°F13.8°C 53.3°F11.8°C 88% Calm Calm 1.1 mph1.8 kmh 30.08 in1018.6 mb - 0.00 in0.0 mm 0.00 in0.0 mm
05:20 AM 56.8°F13.8°C 53.3°F11.8°C 88% 1.1 mph NE1.8 kmh NE 2.3 mph3.7 kmh 30.08 in1018.6 mb - 0.00 in0.0 mm 0.00 in0.0 mm
05:10 AM 56.9°F13.8°C 53.1°F11.7°C 87% Calm Calm 1.1 mph1.8 kmh 30.08 in1018.6 mb - 0.00 in0.0 mm 0.00 in0.0 mm
05:00 AM 56.9°F13.8°C 53.1°F11.7°C 87% 1.1 mph NE1.8 kmh NE 3.5 mph5.6 kmh 30.08 in1018.6 mb - 0.00 in0.0 mm 0.00 in0.0 mm
04:50 AM 57.0°F13.9°C 53.2°F11.8°C 87% 2.3 mph NE3.7 kmh NE 3.5 mph5.6 kmh 30.08 in1018.6 mb - 0.00 in0.0 mm 0.00 in0.0 mm
04:40 AM 57.1°F13.9°C 53.3°F11.8°C 87% 1.1 mph NE1.8 kmh NE 2.3 mph3.7 kmh 30.08 in1018.6 mb - 0.00 in0.0 mm 0.00 in0.0 mm
04:30 AM 57.3°F14.1°C 53.1°F11.7°C 86% 1.1 mph NE1.8 kmh NE 3.5 mph5.6 kmh 30.08 in1018.6 mb - 0.00 in0.0 mm 0.00 in0.0 mm
04:10 AM 57.5°F14.2°C 53.3°F11.8°C 86% Calm Calm 2.3 mph3.7 kmh 30.09 in1019.0 mb - 0.00 in0.0 mm 0.00 in0.0 mm
04:00 AM 57.4°F14.1°C 53.2°F11.8°C 86% 3.5 mph NE5.6 kmh NE 3.5 mph5.6 kmh 30.09 in1019.0 mb - 0.00 in0.0 mm 0.00 in0.0 mm
03:50 AM 57.5°F14.2°C 53.3°F11.8°C 86% 1.1 mph NE1.8 kmh NE 3.5 mph5.6 kmh 30.09 in1019.0 mb - 0.00 in0.0 mm 0.00 in0.0 mm
03:40 AM 57.6°F14.2°C 53.4°F11.9°C 86% Calm Calm -- 30.09 in1019.0 mb - 0.00 in0.0 mm 0.00 in0.0 mm
03:30 AM 57.7°F14.3°C 53.2°F11.8°C 85% Calm Calm -- 30.09 in1019.0 mb - 0.00 in0.0 mm 0.00 in0.0 mm
03:20 AM 58.0°F14.4°C 53.5°F11.9°C 85% Calm Calm -- 30.09 in1019.0 mb - 0.00 in0.0 mm 0.00 in0.0 mm
03:10 AM 58.3°F14.6°C 53.5°F11.9°C 84% Calm Calm -- 30.09 in1019.0 mb - 0.00 in0.0 mm 0.00 in0.0 mm
03:00 AM 58.5°F14.7°C 53.7°F12.1°C 84% 4.6 mph NE7.4 kmh NE 5.8 mph9.3 kmh 30.09 in1019.0 mb - 0.00 in0.0 mm 0.00 in0.0 mm
02:50 AM 58.7°F14.8°C 53.9°F12.2°C 84% 2.3 mph NE3.7 kmh NE 3.5 mph5.6 kmh 30.09 in1019.0 mb - 0.00 in0.0 mm 0.00 in0.0 mm
02:40 AM 59.0°F15.0°C 53.8°F12.1°C 83% 2.3 mph NE3.7 kmh NE 3.5 mph5.6 kmh 30.09 in1019.0 mb - 0.00 in0.0 mm 0.00 in0.0 mm
02:30 AM 59.2°F15.1°C 53.7°F12.1°C 82% 3.5 mph NE5.6 kmh NE 4.6 mph7.4 kmh 30.09 in1019.0 mb - 0.00 in0.0 mm 0.00 in0.0 mm
02:20 AM 59.4°F15.2°C 53.9°F12.2°C 82% 2.3 mph NE3.7 kmh NE 3.5 mph5.6 kmh 30.09 in1019.0 mb - 0.00 in0.0 mm 0.00 in0.0 mm
02:10 AM 59.7°F15.4°C 54.2°F12.3°C 82% Calm Calm 1.1 mph1.8 kmh 30.09 in1019.0 mb - 0.00 in0.0 mm 0.00 in0.0 mm
02:00 AM 59.9°F15.5°C 54.4°F12.4°C 82% Calm Calm 2.3 mph3.7 kmh 30.10 in1019.3 mb - 0.00 in0.0 mm 0.00 in0.0 mm
01:50 AM 60.2°F15.7°C 54.7°F12.6°C 82% Calm Calm -- 30.10 in1019.3 mb - 0.00 in0.0 mm 0.00 in0.0 mm
01:40 AM 60.6°F15.9°C 54.4°F12.4°C 80% Calm Calm -- 30.10 in1019.3 mb - 0.00 in0.0 mm 0.00 in0.0 mm
01:30 AM 61.1°F16.2°C 54.2°F12.3°C 78% 1.1 mph NE1.8 kmh NE 1.1 mph1.8 kmh 30.10 in1019.3 mb - 0.00 in0.0 mm 0.00 in0.0 mm
01:20 AM 61.5°F16.4°C 54.6°F12.6°C 78% 1.1 mph NE1.8 kmh NE 2.3 mph3.7 kmh 30.10 in1019.3 mb - 0.00 in0.0 mm 0.00 in0.0 mm
01:10 AM 62.0°F16.7°C 54.7°F12.6°C 77% Calm Calm 2.3 mph3.7 kmh 30.11 in1019.6 mb - 0.00 in0.0 mm 0.00 in0.0 mm
01:00 AM 62.3°F16.8°C 55.0°F12.8°C 77% Calm Calm 2.3 mph3.7 kmh 30.11 in1019.6 mb - 0.00 in0.0 mm 0.00 in0.0 mm
12:50 AM 62.6°F17.0°C 55.3°F12.9°C 77% Calm Calm 1.1 mph1.8 kmh 30.11 in1019.6 mb - 0.00 in0.0 mm 0.00 in0.0 mm
12:40 AM 63.0°F17.2°C 55.3°F12.9°C 76% 1.1 mph NE1.8 kmh NE 2.3 mph3.7 kmh 30.11 in1019.6 mb - 0.00 in0.0 mm 0.00 in0.0 mm
12:30 AM 63.6°F17.6°C 55.5°F13.1°C 75% Calm Calm 1.1 mph1.8 kmh 30.11 in1019.6 mb - 0.00 in0.0 mm 0.00 in0.0 mm
12:20 AM 64.0°F17.8°C 55.5°F13.1°C 74% Calm Calm 1.1 mph1.8 kmh 30.11 in1019.6 mb - 0.00 in0.0 mm 0.00 in0.0 mm
12:10 AM 64.4°F18.0°C 55.6°F13.1°C 73% 2.3 mph NE3.7 kmh NE 4.6 mph7.4 kmh 30.11 in1019.6 mb - 0.00 in0.0 mm 0.00 in0.0 mm
12:00 AM 64.8°F18.2°C 55.6°F13.1°C 72% Calm Calm -- 30.11 in1019.6 mb - 0.00 in0.0 mm 0.00 in0.0 mm